Time;durP1;ratioP1;P1;durP2;ratioP2;P2;SDS_P1;SDS_P2;PMS_P1;PMS_P2;Temp;Humidity;BMP_temperature;BMP_pressure;BME280_temperature;BME280_humidity;BME280_pressure;Samples;Min_cycle;Max_cycle;Signal;HPM_P1;HPM_P2
2022/07/01 00:02:25;;;;;;;2.20;0.70;;;;;;;14.08;88.14;95688.84;5011151;28;20199;-84
2022/07/01 00:04:50;;;;;;;1.40;0.63;;;;;;;14.18;89.22;95699.91;4994754;28;20180;-84
2022/07/01 00:07:16;;;;;;;1.08;0.57;;;;;;;14.28;88.01;95694.50;4997210;28;20188;-84
2022/07/01 00:09:41;;;;;;;2.40;0.60;;;;;;;14.29;87.81;95696.13;4993454;28;20754;-83
2022/07/01 00:12:07;;;;;;;0.50;0.50;;;;;;;14.30;87.95;95691.72;5002827;28;20664;-83
2022/07/01 00:14:32;;;;;;;2.00;0.60;;;;;;;14.26;88.09;95700.91;5006981;28;20270;-83
2022/07/01 00:16:57;;;;;;;1.48;0.90;;;;;;;14.31;89.15;95704.66;5012057;28;20207;-83
2022/07/01 00:19:24;;;;;;;0.88;0.60;;;;;;;14.37;88.40;95708.38;5011756;28;20171;-84
2022/07/01 00:21:49;;;;;;;2.80;0.70;;;;;;;14.30;88.55;95713.44;5012922;28;20176;-83
2022/07/01 00:24:15;;;;;;;0.70;0.50;;;;;;;14.25;88.90;95720.16;5002297;28;20205;-84
2022/07/01 00:26:40;;;;;;;0.85;0.60;;;;;;;14.32;88.74;95726.34;4991021;28;20194;-84
2022/07/01 00:29:05;;;;;;;1.60;0.77;;;;;;;14.38;88.72;95716.03;5027676;28;20199;-82
2022/07/01 00:31:31;;;;;;;0.98;0.68;;;;;;;14.32;89.03;95703.66;5020640;28;20230;-83
2022/07/01 00:33:56;;;;;;;1.17;0.63;;;;;;;14.24;88.22;95690.63;5026465;28;20183;-82
2022/07/01 00:36:21;;;;;;;2.58;0.70;;;;;;;14.34;88.85;95701.69;5020771;28;20222;-82
2022/07/01 00:38:46;;;;;;;1.60;0.73;;;;;;;14.43;88.41;95713.75;5033547;28;20195;-84
2022/07/01 00:41:12;;;;;;;2.05;0.70;;;;;;;14.42;89.71;95695.63;4997398;28;20194;-83
2022/07/01 00:43:38;;;;;;;0.80;0.60;;;;;;;14.42;88.78;95691.22;5013558;28;20237;-83
2022/07/01 00:46:04;;;;;;;0.65;0.60;;;;;;;14.44;88.34;95693.66;5005245;28;20187;-83
2022/07/01 00:48:32;;;;;;;0.60;0.50;;;;;;;14.33;87.89;95694.84;4995622;28;20274;-83
2022/07/01 00:50:57;;;;;;;2.45;0.60;;;;;;;14.37;87.94;95695.31;4995844;28;20218;-83
2022/07/01 00:53:23;;;;;;;5.15;0.88;;;;;;;14.27;85.57;95700.72;4995558;28;20191;-83
2022/07/01 00:55:49;;;;;;;0.65;0.50;;;;;;;14.49;85.90;95708.84;5011090;28;20186;-83
2022/07/01 00:58:14;;;;;;;1.42;0.65;;;;;;;14.33;87.41;95710.50;5011167;28;20183;-83
2022/07/01 01:00:39;;;;;;;2.72;0.80;;;;;;;14.38;86.91;95713.44;5001384;28;20204;-83
2022/07/01 01:03:07;;;;;;;3.13;0.57;;;;;;;14.38;87.77;95717.84;5010572;28;21443;-83
2022/07/01 01:05:33;;;;;;;1.13;0.60;;;;;;;14.43;88.65;95715.56;4994691;28;20185;-82
2022/07/01 01:07:58;;;;;;;0.77;0.50;;;;;;;14.39;88.58;95707.22;5011694;28;20233;-83
2022/07/01 01:10:24;;;;;;;0.63;0.45;;;;;;;14.55;87.91;95716.03;5011500;28;20210;-83
2022/07/01 01:12:50;;;;;;;1.33;0.75;;;;;;;14.41;87.79;95709.69;4994628;28;20195;-81
2022/07/01 01:15:19;;;;;;;0.50;0.50;;;;;;;14.33;87.82;95702.69;4994180;28;20179;-83
2022/07/01 01:17:46;;;;;;;0.63;0.60;;;;;;;14.30;87.99;95695.16;5011150;28;20175;-83
2022/07/01 01:20:16;;;;;;;0.70;0.70;;;;;;;14.25;87.92;95688.81;4996357;28;20282;-83
2022/07/01 01:22:41;;;;;;;1.33;0.68;;;;;;;14.08;89.04;95686.22;5008805;28;20191;-82
2022/07/01 01:25:07;;;;;;;1.67;0.80;;;;;;;14.18;89.12;95689.47;4994028;28;20262;-83
2022/07/01 01:27:32;;;;;;;0.70;0.70;;;;;;;14.11;89.53;95682.47;4995010;28;20362;-83
2022/07/01 01:29:58;;;;;;;5.22;0.93;;;;;;;14.12;89.95;95679.69;5011473;28;20734;-83
2022/07/01 01:32:23;;;;;;;2.55;1.05;;;;;;;14.10;89.73;95681.66;5010774;28;20183;-83
2022/07/01 01:34:48;;;;;;;1.77;1.10;;;;;;;14.13;90.92;95685.72;5010053;28;20467;-83
2022/07/01 01:37:14;;;;;;;1.03;0.90;;;;;;;14.11;90.63;95695.53;4995380;28;20656;-83
2022/07/01 01:39:39;;;;;;;2.40;1.10;;;;;;;13.93;91.43;95695.72;4994276;28;20214;-83
2022/07/01 01:42:05;;;;;;;1.40;1.10;;;;;;;14.11;90.53;95692.91;5010943;28;20223;-84
2022/07/01 01:44:31;;;;;;;0.88;0.88;;;;;;;14.18;90.16;95696.50;5010268;28;20186;-83
2022/07/01 01:46:56;;;;;;;1.60;1.10;;;;;;;14.10;90.33;95691.28;4994927;28;20286;-84
2022/07/01 01:49:21;;;;;;;1.05;0.95;;;;;;;14.13;90.97;95690.94;5012269;28;20244;-83
2022/07/01 01:51:47;;;;;;;2.55;1.60;;;;;;;13.88;90.77;95675.34;5011730;28;20214;-83
2022/07/01 01:54:12;;;;;;;2.13;1.30;;;;;;;14.00;91.30;95672.38;4994897;28;20183;-83
2022/07/01 01:56:37;;;;;;;2.60;1.27;;;;;;;14.00;91.15;95662.75;4995658;28;20187;-84
2022/07/01 01:59:04;;;;;;;2.42;1.35;;;;;;;13.97;90.51;95657.06;5011658;28;20187;-83
2022/07/01 02:01:30;;;;;;;1.48;1.20;;;;;;;13.86;91.62;95659.00;5011567;28;20223;-84
2022/07/01 02:03:56;;;;;;;3.60;1.37;;;;;;;13.97;90.93;95641.38;4986417;28;20218;-84
2022/07/01 02:06:21;;;;;;;2.53;1.48;;;;;;;13.93;90.67;95634.84;4988159;28;20237;-84
2022/07/01 02:08:48;;;;;;;2.50;2.00;;;;;;;13.76;90.59;95634.88;4994395;28;20735;-82
2022/07/01 02:11:13;;;;;;;3.40;2.10;;;;;;;13.85;90.90;95644.31;5014748;28;20274;-85
2022/07/01 02:13:38;;;;;;;2.90;2.10;;;;;;;13.70;91.05;95642.56;5014775;28;20269;-84
2022/07/01 02:16:04;;;;;;;2.03;1.93;;;;;;;13.69;91.53;95644.31;4998039;28;20183;-84
2022/07/01 02:18:30;;;;;;;2.03;1.90;;;;;;;13.72;91.54;95641.41;5014945;28;20179;-84
2022/07/01 02:20:56;;;;;;;3.53;2.30;;;;;;;13.70;91.64;95645.16;4998332;28;20520;-84
2022/07/01 02:23:21;;;;;;;2.60;2.40;;;;;;;13.66;91.14;95634.22;5014873;28;20266;-83
2022/07/01 02:25:47;;;;;;;3.80;2.57;;;;;;;13.74;90.93;95643.84;5014632;28;20218;-83
2022/07/01 02:28:12;;;;;;;3.47;2.77;;;;;;;13.56;91.88;95644.84;4998153;28;20217;-84
2022/07/01 02:30:38;;;;;;;3.80;2.90;;;;;;;13.72;91.93;95641.41;5014267;28;20554;-84
2022/07/01 02:33:05;;;;;;;3.97;2.47;;;;;;;13.69;91.36;95646.94;5014253;28;20219;-84
2022/07/01 02:35:31;;;;;;;2.67;2.17;;;;;;;13.55;91.55;95639.78;4997208;28;20183;-84
2022/07/01 02:37:56;;;;;;;2.37;1.80;;;;;;;13.56;90.65;95639.63;5014654;28;20674;-84
2022/07/01 02:40:21;;;;;;;2.07;1.73;;;;;;;13.64;90.00;95644.03;4997664;28;20269;-83
2022/07/01 02:42:47;;;;;;;1.83;1.30;;;;;;;13.52;90.11;95646.16;4998650;28;20199;-83
2022/07/01 02:45:12;;;;;;;2.23;1.67;;;;;;;13.37;90.97;95655.59;5013767;28;20207;-83
2022/07/01 02:47:39;;;;;;;2.73;1.40;;;;;;;13.53;91.10;95662.63;5014303;28;20256;-84
2022/07/01 02:50:07;;;;;;;1.60;1.20;;;;;;;13.35;92.21;95647.13;5013927;28;20211;-84
2022/07/01 02:52:34;;;;;;;3.13;1.00;;;;;;;13.37;90.49;95647.78;5013613;28;20191;-83
2022/07/01 02:55:00;;;;;;;2.20;0.87;;;;;;;13.26;91.59;95640.28;5014403;28;20317;-83
2022/07/01 02:57:25;;;;;;;1.40;1.10;;;;;;;13.28;91.74;95639.13;5014060;28;20183;-82
2022/07/01 02:59:50;;;;;;;1.60;0.90;;;;;;;13.40;90.06;95646.63;5013729;28;20202;-84
2022/07/01 03:02:17;;;;;;;1.80;0.80;;;;;;;13.43;89.09;95646.28;5014096;28;20179;-84
2022/07/01 03:04:43;;;;;;;1.40;0.70;;;;;;;13.35;89.48;95647.13;4998222;28;20658;-84
2022/07/01 03:07:09;;;;;;;1.17;0.63;;;;;;;13.19;90.56;95650.53;5016109;28;20179;-83
2022/07/01 03:09:34;;;;;;;2.37;1.10;;;;;;;13.02;91.70;95644.44;5015740;28;20689;-84
2022/07/01 03:12:00;;;;;;;1.10;0.83;;;;;;;13.20;90.72;95640.91;5015239;28;20229;-84
2022/07/01 03:14:25;;;;;;;0.70;0.70;;;;;;;13.23;90.22;95636.16;5014690;28;20262;-84
2022/07/01 03:16:50;;;;;;;0.63;0.63;;;;;;;13.11;90.46;95631.41;5014330;28;20234;-84
2022/07/01 03:19:15;;;;;;;0.63;0.63;;;;;;;12.94;91.75;95630.56;5014311;28;20191;-84
2022/07/01 03:21:41;;;;;;;5.43;0.90;;;;;;;12.86;91.90;95623.53;5014402;28;20259;-84
2022/07/01 03:24:07;;;;;;;1.60;0.70;;;;;;;12.95;92.28;95634.81;5013833;28;20606;-84
2022/07/01 03:26:32;;;;;;;0.80;0.70;;;;;;;12.82;92.85;95647.50;5014249;28;20191;-84
2022/07/01 03:28:57;;;;;;;2.70;0.80;;;;;;;12.89;92.88;95658.88;5013944;28;20185;-84
2022/07/01 03:31:23;;;;;;;0.90;0.90;;;;;;;13.00;92.70;95663.81;5014028;28;20210;-84
2022/07/01 03:33:48;;;;;;;1.07;0.93;;;;;;;12.90;93.63;95663.97;5012750;28;20545;-84
2022/07/01 03:36:13;;;;;;;1.23;0.90;;;;;;;13.01;92.76;95673.28;4997391;28;20265;-84
2022/07/01 03:38:38;;;;;;;1.10;0.73;;;;;;;12.77;93.73;95659.19;5014166;28;20234;-84
2022/07/01 03:41:04;;;;;;;1.90;0.90;;;;;;;12.86;93.12;95674.84;5013456;28;20263;-84
2022/07/01 03:43:29;;;;;;;1.17;0.90;;;;;;;12.76;93.54;95675.81;5013486;28;20617;-83
2022/07/01 03:45:55;;;;;;;1.83;1.00;;;;;;;13.00;91.95;95676.84;5013040;28;20666;-84
2022/07/01 03:48:20;;;;;;;1.57;0.77;;;;;;;12.91;92.22;95675.22;5012916;28;20179;-84
2022/07/01 03:50:45;;;;;;;1.83;1.07;;;;;;;12.81;93.41;95669.28;5012830;28;20207;-83
2022/07/01 03:55:55;;;;;;;0.93;0.77;;;;;;;12.82;94.15;95689.19;5012340;28;20202;-84
2022/07/01 03:58:20;;;;;;;2.00;0.80;;;;;;;12.98;92.96;95690.03;5012937;28;20175;-85
2022/07/01 04:00:45;;;;;;;2.60;1.07;;;;;;;12.99;93.22;95702.13;4996631;28;20207;-83
2022/07/01 04:03:11;;;;;;;1.03;0.97;;;;;;;12.91;93.46;95725.53;5013150;28;20265;-83
2022/07/01 04:05:36;;;;;;;0.93;0.93;;;;;;;12.95;93.27;95732.06;5012089;28;20183;-84
2022/07/01 04:08:03;;;;;;;0.70;0.70;;;;;;;12.99;93.66;95732.59;5012982;28;20183;-83
2022/07/01 04:10:31;;;;;;;1.87;0.70;;;;;;;12.99;94.09;95737.78;5012765;28;20211;-84
2022/07/01 04:12:57;;;;;;;1.93;0.70;;;;;;;13.02;93.95;95750.50;4996963;28;20171;-82
2022/07/01 04:15:22;;;;;;;0.97;0.90;;;;;;;13.14;93.79;95761.44;5013033;28;20302;-83
2022/07/01 04:17:47;;;;;;;1.90;0.80;;;;;;;13.00;94.56;95763.69;5010439;28;20187;-84
2022/07/01 04:20:13;;;;;;;1.30;0.80;;;;;;;13.03;94.78;95749.53;4996203;28;20226;-82
2022/07/01 04:22:38;;;;;;;1.10;0.97;;;;;;;13.07;94.33;95742.19;5013829;28;20214;-84
2022/07/01 04:25:04;;;;;;;1.70;1.20;;;;;;;13.15;92.68;95727.38;5028088;28;20217;-83
2022/07/01 04:27:30;;;;;;;2.00;1.10;;;;;;;13.22;91.67;95740.66;5007854;28;20525;-80
2022/07/01 04:29:56;;;;;;;2.40;1.40;;;;;;;13.31;91.80;95730.06;5012732;28;20293;-81
2022/07/01 04:32:22;;;;;;;1.90;1.30;;;;;;;13.28;92.38;95737.41;5018052;28;20221;-80
2022/07/01 04:34:47;;;;;;;1.40;1.30;;;;;;;13.27;92.85;95747.03;5002651;28;20269;-81
2022/07/01 04:37:13;;;;;;;2.60;1.60;;;;;;;13.32;92.51;95749.97;5016679;28;20659;-81
2022/07/01 04:39:38;;;;;;;1.87;1.10;;;;;;;13.36;92.40;95757.47;5015285;28;20195;-81
2022/07/01 04:42:04;;;;;;;1.70;1.50;;;;;;;13.33;93.35;95759.41;5014007;28;20187;-81
2022/07/01 04:44:34;;;;;;;1.97;1.57;;;;;;;13.21;92.34;95765.91;4997585;28;20538;-81
2022/07/01 04:47:01;;;;;;;1.73;1.63;;;;;;;13.33;92.91;95769.03;5013844;28;20556;-81
2022/07/01 04:49:27;;;;;;;2.60;1.67;;;;;;;13.33;93.55;95771.63;4997921;28;20286;-81
2022/07/01 04:51:52;;;;;;;2.57;1.70;;;;;;;13.24;93.58;95778.63;5014425;28;20230;-80
2022/07/01 04:54:18;;;;;;;1.73;1.63;;;;;;;13.22;92.60;95783.19;4999702;28;20248;-78
2022/07/01 04:56:44;;;;;;;2.20;2.00;;;;;;;13.16;93.00;95769.91;5017037;28;20184;-79
2022/07/01 04:59:09;;;;;;;2.67;2.00;;;;;;;13.27;92.90;95764.47;5013733;28;20186;-84
2022/07/01 05:01:35;;;;;;;2.30;1.90;;;;;;;13.26;93.72;95768.88;5015122;28;20199;-83
2022/07/01 05:04:00;;;;;;;3.10;2.10;;;;;;;13.26;94.01;95770.66;5016443;28;20190;-84
2022/07/01 05:06:25;;;;;;;3.97;1.90;;;;;;;13.25;93.58;95766.41;5016205;28;20187;-82
2022/07/01 05:08:51;;;;;;;2.53;1.87;;;;;;;13.19;93.62;95765.25;4999781;28;20655;-83
2022/07/01 05:11:16;;;;;;;2.20;2.00;;;;;;;13.08;94.23;95764.72;5000266;28;20211;-83
2022/07/01 05:13:42;;;;;;;3.03;1.90;;;;;;;13.05;94.93;95763.22;5015389;28;20761;-83
2022/07/01 05:16:10;;;;;;;2.17;1.70;;;;;;;13.25;94.10;95769.00;5016283;28;20269;-82
2022/07/01 05:24:05;;;;;;;3.57;2.10;;;;;;;13.11;95.65;95757.38;5014210;28;20241;-82
2022/07/01 05:26:31;;;;;;;2.53;1.80;;;;;;;13.25;93.99;95754.19;5013223;28;20195;-84
2022/07/01 05:28:56;;;;;;;3.37;2.33;;;;;;;13.14;94.74;95756.22;5013526;28;20181;-84
2022/07/01 05:31:21;;;;;;;3.17;1.90;;;;;;;13.15;95.77;95750.84;5012487;28;20245;-85
2022/07/01 05:33:47;;;;;;;2.40;2.10;;;;;;;13.14;96.03;95748.41;4995788;28;20187;-84
2022/07/01 05:36:12;;;;;;;3.93;2.27;;;;;;;12.95;96.25;95739.06;5011752;28;20269;-81
2022/07/01 05:38:38;;;;;;;2.93;2.40;;;;;;;12.94;97.14;95734.84;4995077;28;20553;-80
2022/07/01 05:41:03;;;;;;;2.47;2.13;;;;;;;12.99;96.64;95740.41;5007322;28;20311;-82
2022/07/01 05:43:29;;;;;;;2.77;2.37;;;;;;;12.91;96.26;95738.56;4995015;28;20183;-84
2022/07/01 05:45:54;;;;;;;2.93;2.10;;;;;;;13.02;95.42;95745.28;4993692;28;20593;-81
2022/07/01 05:48:20;;;;;;;5.40;1.80;;;;;;;12.92;96.55;95757.63;4995531;28;20260;-80
2022/07/01 05:50:45;;;;;;;2.60;2.13;;;;;;;12.76;97.03;95753.97;5012324;28;20310;-80
2022/07/01 05:53:10;;;;;;;2.83;1.83;;;;;;;12.80;97.94;95764.06;5010594;28;20770;-83
2022/07/01 05:55:36;;;;;;;2.83;2.20;;;;;;;12.88;97.56;95772.75;4993599;28;20658;-83
2022/07/01 05:58:01;;;;;;;2.20;2.00;;;;;;;12.92;97.11;95779.31;5011360;28;20183;-83
2022/07/01 06:00:27;;;;;;;3.53;2.00;;;;;;;12.92;97.12;95779.31;5010380;28;20271;-83
2022/07/01 06:02:53;;;;;;;3.50;1.87;;;;;;;12.99;97.13;95779.50;5011457;28;20179;-83
2022/07/01 06:05:18;;;;;;;4.53;2.00;;;;;;;13.03;96.63;95786.03;5010583;28;20229;-83
2022/07/01 06:07:44;;;;;;;3.80;2.40;;;;;;;12.97;96.54;95791.84;5010941;28;20183;-83
2022/07/01 06:10:12;;;;;;;2.10;1.90;;;;;;;13.09;96.92;95795.03;5012297;28;20203;-82
2022/07/01 06:12:38;;;;;;;2.57;1.90;;;;;;;13.03;96.22;95804.28;5012357;28;20206;-84
2022/07/01 06:15:05;;;;;;;2.47;1.97;;;;;;;13.07;97.44;95808.19;5012667;28;20190;-84
2022/07/01 06:17:30;;;;;;;2.20;2.00;;;;;;;13.08;96.37;95817.66;5016594;28;20206;-82
2022/07/01 06:20:00;;;;;;;3.07;2.10;;;;;;;13.17;96.35;95824.56;5036578;28;20214;-82
2022/07/01 06:22:25;;;;;;;2.93;1.80;;;;;;;13.05;95.42;95831.00;5028072;28;20187;-85
2022/07/01 06:24:50;;;;;;;2.97;1.80;;;;;;;13.24;96.39;95829.97;5012189;28;20186;-84
2022/07/01 06:27:16;;;;;;;2.17;1.97;;;;;;;13.38;96.21;95831.97;5028886;28;20164;-83
2022/07/01 06:29:43;;;;;;;2.23;2.03;;;;;;;13.27;96.39;95825.28;5017466;28;20250;-83
2022/07/01 06:32:09;;;;;;;2.47;1.90;;;;;;;13.36;94.88;95825.31;5030941;28;20199;-82
2022/07/01 06:34:34;;;;;;;2.80;1.90;;;;;;;13.43;95.01;95829.72;5028892;28;20206;-83
2022/07/01 06:37:00;;;;;;;3.27;2.17;;;;;;;13.47;94.71;95827.63;4999291;28;20187;-84
2022/07/01 06:39:26;;;;;;;2.73;1.93;;;;;;;13.38;94.54;95816.34;5010229;28;20234;-83
2022/07/01 06:41:51;;;;;;;3.80;2.27;;;;;;;13.53;94.79;95819.16;5012817;28;20199;-83
2022/07/01 06:44:29;;;;;;;3.10;2.07;;;;;;;13.60;93.49;95818.38;5011359;28;20195;-83
2022/07/01 06:46:54;;;;;;;3.30;1.93;;;;;;;13.55;92.87;95818.03;5012206;28;20183;-82
2022/07/01 06:49:20;;;;;;;2.27;1.87;;;;;;;13.60;93.34;95827.97;5012286;28;20241;-81
2022/07/01 06:51:45;;;;;;;2.30;2.10;;;;;;;13.50;93.02;95824.69;5014415;28;20750;-82
2022/07/01 06:54:12;;;;;;;3.53;2.10;;;;;;;13.74;92.70;95816.91;5011759;28;20187;-82
2022/07/01 06:56:37;;;;;;;2.10;1.70;;;;;;;13.74;93.15;95806.47;5013810;28;20198;-83
2022/07/01 06:59:02;;;;;;;2.87;2.13;;;;;;;13.79;93.40;95814.66;5014472;28;20187;-83
2022/07/01 07:01:28;;;;;;;2.20;2.00;;;;;;;13.80;93.14;95821.50;5014493;28;20199;-83
2022/07/01 07:03:53;;;;;;;5.47;2.30;;;;;;;13.84;93.44;95820.19;4997294;28;20282;-82
2022/07/01 07:06:19;;;;;;;3.23;2.37;;;;;;;13.90;93.04;95823.97;4998083;28;20203;-83
2022/07/01 07:08:44;;;;;;;2.43;1.90;;;;;;;13.87;92.31;95817.28;4983946;28;20659;-83
2022/07/01 07:11:09;;;;;;;3.00;2.13;;;;;;;13.81;93.04;95810.09;4998860;28;20202;-81
2022/07/01 07:13:36;;;;;;;3.67;2.20;;;;;;;13.62;92.28;95815.59;5016157;28;20234;-82
2022/07/01 07:16:01;;;;;;;3.10;2.10;;;;;;;13.82;92.21;95826.56;4998566;28;20185;-83
2022/07/01 07:18:27;;;;;;;2.50;1.83;;;;;;;13.74;92.61;95837.78;4998481;28;20340;-83
2022/07/01 07:20:52;;;;;;;3.10;2.27;;;;;;;13.72;92.54;95847.59;4997814;28;20777;-82
2022/07/01 07:23:17;;;;;;;2.30;1.90;;;;;;;13.83;92.07;95844.66;4997932;28;20210;-82
2022/07/01 07:25:43;;;;;;;2.40;2.17;;;;;;;13.94;92.52;95861.00;5015952;28;20585;-82
2022/07/01 07:28:08;;;;;;;2.80;1.80;;;;;;;14.12;91.81;95859.88;5014847;28;20599;-82
2022/07/01 07:30:33;;;;;;;2.67;2.17;;;;;;;14.27;90.87;95864.47;4998081;28;20218;-83
2022/07/01 07:32:58;;;;;;;3.30;2.00;;;;;;;14.45;90.59;95855.53;5014617;28;20175;-83
2022/07/01 07:35:24;;;;;;;3.20;1.83;;;;;;;14.50;87.85;95859.44;5014300;28;20233;-83
2022/07/01 07:37:49;;;;;;;3.10;2.40;;;;;;;14.55;87.20;95857.97;5015611;28;20207;-81
2022/07/01 07:40:18;;;;;;;4.73;2.03;;;;;;;14.57;85.19;95861.22;4998056;28;20199;-84
2022/07/01 07:42:44;;;;;;;6.13;2.17;;;;;;;14.47;86.77;95863.19;4998611;28;20194;-83
2022/07/01 07:45:11;;;;;;;2.67;2.10;;;;;;;14.52;89.33;95855.69;4996132;28;20187;-83
2022/07/01 07:47:37;;;;;;;2.40;2.20;;;;;;;14.39;88.27;95852.69;5013453;28;20175;-82
2022/07/01 07:50:04;;;;;;;2.80;2.25;;;;;;;14.40;88.33;95852.56;5029872;28;20206;-81
2022/07/01 07:52:29;;;;;;;3.03;2.42;;;;;;;14.28;88.06;95855.66;4997456;28;20183;-84
2022/07/01 07:54:55;;;;;;;3.38;2.47;;;;;;;14.20;89.18;95866.09;5013722;28;20178;-82
2022/07/01 07:57:20;;;;;;;2.50;2.30;;;;;;;14.15;90.46;95874.44;4998927;28;20211;-83
2022/07/01 07:59:46;;;;;;;4.53;2.63;;;;;;;14.22;89.60;95879.78;4998473;28;20229;-82
2022/07/01 08:02:14;;;;;;;2.38;2.17;;;;;;;14.07;91.07;95877.03;5014567;28;20176;-81
2022/07/01 08:04:39;;;;;;;1.90;1.80;;;;;;;14.08;90.55;95870.81;5014071;28;20663;-81
2022/07/01 08:07:04;;;;;;;4.38;2.30;;;;;;;14.03;90.93;95868.69;5012791;28;20183;-84
2022/07/01 08:09:31;;;;;;;3.85;1.85;;;;;;;13.98;91.42;95881.41;5013728;28;20179;-83
2022/07/01 08:11:57;;;;;;;4.07;2.00;;;;;;;14.11;90.48;95892.19;5013627;28;20199;-83
2022/07/01 08:14:23;;;;;;;2.50;2.30;;;;;;;14.15;90.95;95905.78;5013167;28;20278;-83
2022/07/01 08:16:48;;;;;;;2.28;2.08;;;;;;;14.32;90.60;95907.44;4996728;28;20183;-82
2022/07/01 08:19:13;;;;;;;2.55;1.90;;;;;;;14.35;90.12;95907.09;4997126;28;20644;-85
2022/07/01 08:21:39;;;;;;;2.80;2.10;;;;;;;14.31;89.91;95910.16;4996632;28;20251;-83
2022/07/01 08:24:04;;;;;;;1.87;1.70;;;;;;;14.29;88.94;95902.50;5013046;28;20182;-82
2022/07/01 08:26:30;;;;;;;2.07;1.63;;;;;;;14.21;89.18;95892.03;5028510;28;20550;-81
2022/07/01 08:28:55;;;;;;;1.60;1.50;;;;;;;14.15;87.95;95903.97;5014017;28;20262;-81
2022/07/01 08:31:21;;;;;;;1.60;1.50;;;;;;;14.09;89.36;95911.63;4996144;28;20218;-84
2022/07/01 08:33:46;;;;;;;1.50;1.40;;;;;;;14.04;90.54;95919.09;5012338;28;20667;-81
2022/07/01 08:36:13;;;;;;;2.33;1.42;;;;;;;13.97;89.62;95931.19;4993002;28;20234;-82
2022/07/01 08:38:39;;;;;;;3.55;1.40;;;;;;;13.97;89.26;95933.81;4998659;28;20252;-82
2022/07/01 08:41:04;;;;;;;2.53;1.20;;;;;;;13.96;88.78;95945.19;5013253;28;20207;-82
2022/07/01 08:43:30;;;;;;;3.60;1.50;;;;;;;13.79;89.35;95955.59;4996899;28;20643;-82
2022/07/01 08:45:58;;;;;;;1.67;1.40;;;;;;;13.81;89.99;95953.66;4996025;28;20270;-82
2022/07/01 08:48:23;;;;;;;2.07;1.53;;;;;;;13.74;89.40;95951.81;5012990;28;20175;-82
2022/07/01 08:50:49;;;;;;;1.70;1.30;;;;;;;13.86;90.21;95951.38;4996505;28;20273;-81
2022/07/01 08:53:15;;;;;;;2.60;1.60;;;;;;;13.84;90.75;95947.28;4995382;28;20202;-82
2022/07/01 08:58:26;;;;;;;1.20;1.10;;;;;;;13.77;88.18;95926.22;5026179;28;20245;-82
2022/07/01 09:00:52;;;;;;;1.43;1.27;;;;;;;14.13;88.30;95921.59;5012080;28;20191;-81
2022/07/01 09:03:22;;;;;;;1.27;1.17;;;;;;;14.36;86.04;95913.94;4996075;28;20299;-81
2022/07/01 09:05:50;;;;;;;1.50;1.10;;;;;;;14.84;84.21;95935.91;5010637;28;20183;-81
2022/07/01 09:08:15;;;;;;;1.93;1.70;;;;;;;15.06;85.67;95926.53;5012097;28;20179;-81
2022/07/01 09:10:40;;;;;;;2.27;1.20;;;;;;;15.17;84.17;95914.91;4995620;28;20729;-81
2022/07/01 09:13:08;;;;;;;1.20;1.10;;;;;;;15.24;82.86;95926.34;5011754;28;20183;-83
2022/07/01 09:15:34;;;;;;;1.73;1.30;;;;;;;15.23;82.47;95940.41;4995821;28;20185;-83
2022/07/01 09:18:10;;;;;;;3.50;1.27;;;;;;;15.30;83.82;95918.66;5011954;28;20558;-84
2022/07/01 09:20:38;;;;;;;1.35;1.00;;;;;;;15.30;82.33;95912.59;4995742;28;20194;-84
2022/07/01 09:23:11;;;;;;;1.30;1.20;;;;;;;15.38;83.06;95923.06;4994612;28;20206;-82
2022/07/01 09:25:51;;;;;;;1.80;1.70;;;;;;;15.41;81.11;95927.94;4994585;28;20589;-82
2022/07/01 09:28:20;;;;;;;1.63;1.10;;;;;;;15.93;80.28;95943.16;5011097;28;20242;-82
2022/07/01 09:30:49;;;;;;;1.98;1.20;;;;;;;16.05;79.71;95949.63;5010858;28;20199;-83
2022/07/01 09:33:17;;;;;;;1.63;1.30;;;;;;;16.18;78.92;95930.75;4994107;28;20203;-82
2022/07/01 09:35:43;;;;;;;1.13;1.02;;;;;;;16.23;78.06;95924.97;4994109;28;20183;-83
2022/07/01 09:38:14;;;;;;;1.95;1.00;;;;;;;16.33;77.14;95938.66;5011294;28;20574;-83
2022/07/01 09:40:58;;;;;;;2.67;1.33;;;;;;;16.49;76.72;95938.56;4993557;28;20202;-83
2022/07/01 09:43:25;;;;;;;1.45;1.10;;;;;;;16.75;76.11;95943.50;5010887;28;20226;-82
2022/07/01 09:46:08;;;;;;;1.95;0.98;;;;;;;16.64;74.21;95949.13;5026938;28;20270;-83
2022/07/01 09:48:33;;;;;;;1.35;1.00;;;;;;;17.05;74.91;95954.06;4994719;28;20212;-81
2022/07/01 09:51:04;;;;;;;1.33;0.95;;;;;;;17.29;72.30;95951.22;5012171;28;20207;-82
2022/07/01 09:53:29;;;;;;;1.67;1.10;;;;;;;17.48;71.52;95961.19;5011083;28;20203;-82
2022/07/01 09:55:54;;;;;;;2.17;1.00;;;;;;;17.44;70.87;95966.97;5010814;28;20217;-82
2022/07/01 09:58:20;;;;;;;1.58;1.02;;;;;;;17.06;72.27;95960.97;5010758;28;20566;-82
2022/07/01 10:00:46;;;;;;;1.15;0.95;;;;;;;16.87;72.07;95952.59;4995168;28;20722;-83
2022/07/01 10:03:12;;;;;;;6.40;1.67;;;;;;;16.50;72.56;95955.09;4994596;28;20182;-82
2022/07/01 10:06:03;;;;;;;3.55;1.25;;;;;;;16.86;73.11;95971.91;5010617;28;20659;-82
2022/07/01 10:08:47;;;;;;;3.67;1.15;;;;;;;17.29;70.21;95972.19;4994702;28;20672;-82
2022/07/01 10:11:34;;;;;;;6.30;1.17;;;;;;;16.99;68.18;95966.91;5012096;28;20211;-83
2022/07/01 10:14:02;;;;;;;3.47;1.40;;;;;;;17.38;70.23;95963.25;5011107;28;20189;-82
2022/07/01 10:16:27;;;;;;;2.72;1.20;;;;;;;17.33;70.09;95967.44;4994224;28;20269;-83
2022/07/01 10:18:55;;;;;;;1.10;0.88;;;;;;;17.19;68.36;95964.59;5010376;28;20179;-83
2022/07/01 10:21:28;;;;;;;2.78;1.20;;;;;;;17.22;72.65;95971.28;4994726;28;20722;-83
2022/07/01 10:24:11;;;;;;;1.90;1.10;;;;;;;17.00;72.69;95957.22;4993856;28;20223;-83
2022/07/01 10:26:36;;;;;;;2.28;1.05;;;;;;;17.42;71.02;95961.09;5010869;28;20187;-81
2022/07/01 10:29:02;;;;;;;1.95;1.13;;;;;;;17.40;69.54;95969.13;4993810;28;20179;-81
2022/07/01 10:31:36;;;;;;;2.50;1.17;;;;;;;17.41;68.24;95968.16;4996699;28;20682;-82
2022/07/01 10:34:02;;;;;;;1.27;1.02;;;;;;;18.07;69.46;95969.06;5013813;28;20249;-81
2022/07/01 10:36:33;;;;;;;1.20;0.98;;;;;;;18.62;66.38;95982.63;4997757;28;20294;-81
2022/07/01 10:41:31;;;;;;;1.90;1.20;;;;;;;18.93;63.66;95979.72;5016529;28;20196;-82
2022/07/01 10:43:57;;;;;;;2.00;1.20;;;;;;;19.37;62.35;95986.56;5014788;28;20726;-83
2022/07/01 10:46:46;;;;;;;2.30;1.52;;;;;;;19.70;60.91;95992.06;5031483;28;20706;-81
2022/07/01 10:49:39;;;;;;;2.97;1.20;;;;;;;19.78;60.66;95991.91;4997843;28;20655;-82
2022/07/01 10:52:11;;;;;;;3.13;1.30;;;;;;;20.08;58.71;95997.78;4993128;28;20215;-81
2022/07/01 10:54:45;;;;;;;1.77;1.08;;;;;;;20.34;54.45;95997.88;5014450;28;20183;-82
2022/07/01 10:57:20;;;;;;;1.70;1.00;;;;;;;20.18;55.85;95994.78;5009932;28;20189;-81
2022/07/01 10:59:52;;;;;;;2.95;1.40;;;;;;;19.75;57.82;95998.41;5029486;28;20209;-81
2022/07/01 11:02:25;;;;;;;1.35;1.10;;;;;;;19.30;57.78;95997.03;4999429;28;20191;-81
2022/07/01 11:04:53;;;;;;;2.95;1.27;;;;;;;19.28;58.56;95998.25;5027051;28;20293;-81
2022/07/01 11:07:18;;;;;;;1.75;1.13;;;;;;;18.87;58.94;96004.16;5026600;28;20219;-80
2022/07/01 11:09:44;;;;;;;2.17;1.20;;;;;;;18.42;61.73;96011.34;5025218;28;20229;-81
2022/07/01 11:12:09;;;;;;;4.40;2.20;;;;;;;17.86;63.57;96005.81;5006430;28;20233;-82
2022/07/01 11:14:36;;;;;;;1.35;1.25;;;;;;;18.15;64.98;95993.63;5015390;28;20266;-81
2022/07/01 11:17:03;;;;;;;2.58;1.17;;;;;;;18.37;63.37;95988.22;5001691;28;20598;-81
2022/07/01 11:19:31;;;;;;;3.05;1.60;;;;;;;18.73;63.84;95992.72;5016631;28;20286;-85
2022/07/01 11:21:57;;;;;;;2.88;1.50;;;;;;;18.49;63.84;95991.19;5016269;28;20175;-84
2022/07/01 11:24:22;;;;;;;2.33;1.23;;;;;;;18.44;65.26;95990.13;4999058;28;20186;-83
2022/07/01 11:26:49;;;;;;;2.67;1.60;;;;;;;19.12;64.10;95991.44;5015084;28;20554;-83
2022/07/01 11:29:24;;;;;;;2.72;2.00;;;;;;;19.25;61.14;95997.59;5014113;28;20190;-80
2022/07/01 11:31:50;;;;;;;4.65;1.83;;;;;;;19.40;61.01;96002.78;5013519;28;20214;-80
2022/07/01 11:34:18;;;;;;;2.03;1.55;;;;;;;19.72;59.86;96011.16;4996519;28;20550;-79
2022/07/01 11:39:33;;;;;;;3.88;1.75;;;;;;;19.47;58.20;96008.13;5007374;28;20725;-79
2022/07/01 11:42:06;;;;;;;2.22;1.23;;;;;;;19.55;57.31;95996.63;5013398;28;20179;-79
2022/07/01 11:44:38;;;;;;;2.17;1.40;;;;;;;19.70;55.95;96010.50;5013237;28;20183;-79
2022/07/01 11:47:04;;;;;;;2.35;1.42;;;;;;;19.88;56.29;96002.09;4997823;28;20191;-78
2022/07/01 11:49:30;;;;;;;3.65;1.48;;;;;;;19.14;55.69;96005.22;5011793;28;20203;-78